Time;durP1;ratioP1;P1;durP2;ratioP2;P2;SDS_P1;SDS_P2;PMS_P1;PMS_P2;Temp;Humidity;BMP_temperature;BMP_pressure;BME280_temperature;BME280_humidity;BME280_pressure;Samples;Min_cycle;Max_cycle;Signal;HPM_P1;HPM_P2
2024/03/27 00:01:24;;;;;;;29.85;28.02;;;;;;;;;;4999590;28;20106;-95
2024/03/27 00:03:52;;;;;;;32.60;30.75;;;;;;;;;;5003909;28;20057;-94
2024/03/27 00:06:36;;;;;;;30.38;28.52;;;;;;;;;;4987736;28;20053;-95
2024/03/27 00:09:03;;;;;;;38.63;36.35;;;;;;;;;;4991508;28;20023;-95
2024/03/27 00:11:29;;;;;;;34.45;32.42;;;;;;;;;;4985932;28;20522;-95
2024/03/27 00:14:02;;;;;;;33.33;31.27;;;;;;;;;;4970728;28;20038;-95
2024/03/27 00:16:39;;;;;;;26.98;25.27;;;;;;;;;;5002521;28;20022;-94
2024/03/27 00:19:20;;;;;;;30.58;28.75;;;;;;;;;;4983632;28;20056;-95
2024/03/27 00:21:46;;;;;;;34.38;31.88;;;;;;;;;;4971949;28;20061;-94
2024/03/27 00:24:12;;;;;;;33.22;31.13;;;;;;;;;;4987627;28;20106;-95
2024/03/27 00:26:42;;;;;;;26.08;24.05;;;;;;;;;;4993111;28;20053;-91
2024/03/27 00:29:08;;;;;;;27.80;26.00;;;;;;;;;;4978471;28;20125;-95
2024/03/27 00:31:34;;;;;;;27.10;25.00;;;;;;;;;;4983742;28;20019;-92
2024/03/27 00:34:01;;;;;;;27.08;24.83;;;;;;;;;;4984233;28;20062;-94
2024/03/27 00:36:31;;;;;;;32.78;30.60;;;;;;;;;;5003032;28;20538;-91
2024/03/27 00:39:00;;;;;;;24.58;22.63;;;;;;;;;;4984849;28;20038;-93
2024/03/27 00:41:26;;;;;;;20.15;18.40;;;;;;;;;;4986804;28;20399;-92
2024/03/27 00:43:52;;;;;;;24.85;22.85;;;;;;;;;;4982822;28;20030;-94
2024/03/27 00:46:19;;;;;;;24.77;22.98;;;;;;;;;;4983939;28;20438;-95
2024/03/27 00:48:45;;;;;;;22.67;20.95;;;;;;;;;;4984060;28;20034;-91
2024/03/27 00:51:14;;;;;;;27.20;25.23;;;;;;;;;;4978191;28;20041;-92
2024/03/27 00:53:41;;;;;;;19.73;18.33;;;;;;;;;;4965551;28;20030;-91
2024/03/27 00:56:10;;;;;;;31.48;29.40;;;;;;;;;;4962428;28;20039;-94
2024/03/27 00:58:36;;;;;;;25.52;23.92;;;;;;;;;;4964285;28;20468;-92
2024/03/27 01:01:03;;;;;;;23.23;21.75;;;;;;;;;;4964662;28;20034;-94
2024/03/27 01:03:39;;;;;;;29.10;27.38;;;;;;;;;;4961602;28;20117;-93
2024/03/27 01:06:05;;;;;;;28.88;26.95;;;;;;;;;;4959825;28;20042;-94
2024/03/27 01:08:46;;;;;;;33.40;31.33;;;;;;;;;;4959663;28;20469;-92
2024/03/27 01:11:21;;;;;;;36.70;34.38;;;;;;;;;;4959645;28;20038;-93
2024/03/27 01:13:52;;;;;;;26.50;24.75;;;;;;;;;;4971082;28;20055;-92
2024/03/27 01:16:24;;;;;;;26.30;24.58;;;;;;;;;;4959391;28;20031;-94
2024/03/27 01:18:53;;;;;;;24.52;23.02;;;;;;;;;;4958654;28;20496;-96
2024/03/27 01:21:25;;;;;;;40.95;38.40;;;;;;;;;;4958877;28;20030;-93
2024/03/27 01:23:54;;;;;;;27.38;25.35;;;;;;;;;;4920746;29;20059;-93
2024/03/27 01:26:25;;;;;;;25.23;23.50;;;;;;;;;;4937385;29;20037;-93
2024/03/27 01:28:54;;;;;;;25.85;24.20;;;;;;;;;;4936841;29;20489;-96
2024/03/27 01:31:20;;;;;;;26.92;25.17;;;;;;;;;;4948310;28;20041;-90
2024/03/27 01:33:49;;;;;;;24.52;22.98;;;;;;;;;;4973679;28;20031;-92
2024/03/27 01:36:16;;;;;;;20.55;18.95;;;;;;;;;;4968310;28;20030;-94
2024/03/27 01:38:42;;;;;;;26.65;24.65;;;;;;;;;;4960845;28;20034;-94
2024/03/27 01:41:08;;;;;;;26.00;24.05;;;;;;;;;;4958966;28;20041;-94
2024/03/27 01:43:34;;;;;;;31.83;29.75;;;;;;;;;;4958341;28;20019;-91
2024/03/27 01:46:06;;;;;;;36.60;34.20;;;;;;;;;;4958596;28;20038;-94
2024/03/27 01:48:40;;;;;;;38.05;35.25;;;;;;;;;;4958265;28;20019;-93
2024/03/27 01:51:10;;;;;;;27.20;25.10;;;;;;;;;;4970397;28;20081;-94
2024/03/27 01:53:38;;;;;;;41.28;38.33;;;;;;;;;;4978045;28;20026;-94
2024/03/27 01:56:05;;;;;;;61.88;58.15;;;;;;;;;;4979708;28;20031;-93
2024/03/27 01:58:34;;;;;;;30.00;27.77;;;;;;;;;;4977896;28;20030;-94
2024/03/27 02:01:04;;;;;;;37.25;34.83;;;;;;;;;;4978351;28;20084;-93
2024/03/27 02:03:30;;;;;;;35.45;32.90;;;;;;;;;;4962217;28;20027;-94
2024/03/27 02:06:06;;;;;;;32.05;29.88;;;;;;;;;;4978506;28;20039;-93
2024/03/27 02:08:38;;;;;;;31.67;29.58;;;;;;;;;;4979923;28;20022;-94
2024/03/27 02:11:10;;;;;;;47.40;44.10;;;;;;;;;;4981546;28;20483;-94
2024/03/27 02:13:40;;;;;;;32.85;30.60;;;;;;;;;;4981818;28;20057;-93
2024/03/27 02:16:09;;;;;;;32.10;29.88;;;;;;;;;;4981488;28;20349;-93
2024/03/27 02:18:37;;;;;;;31.48;29.25;;;;;;;;;;4982116;28;20030;-95
2024/03/27 02:21:09;;;;;;;37.85;35.35;;;;;;;;;;4984002;28;20035;-94
2024/03/27 02:23:56;;;;;;;39.33;36.63;;;;;;;;;;4984114;28;20026;-90
2024/03/27 02:26:25;;;;;;;39.05;36.53;;;;;;;;;;5004325;28;20019;-91
2024/03/27 02:28:52;;;;;;;43.28;40.42;;;;;;;;;;4994055;28;20034;-91
2024/03/27 02:31:18;;;;;;;74.25;69.95;;;;;;;;;;4994087;28;20032;-96
2024/03/27 02:33:44;;;;;;;42.03;39.38;;;;;;;;;;4986088;28;20034;-94
2024/03/27 02:36:16;;;;;;;55.17;51.85;;;;;;;;;;4981475;28;20102;-95
2024/03/27 02:38:46;;;;;;;46.92;44.08;;;;;;;;;;4980913;28;20030;-92
2024/03/27 02:41:12;;;;;;;58.15;54.75;;;;;;;;;;4982030;28;20053;-93
2024/03/27 02:43:41;;;;;;;59.83;56.35;;;;;;;;;;4993243;28;20034;-94
2024/03/27 02:46:10;;;;;;;41.58;38.78;;;;;;;;;;4984973;28;20419;-94
2024/03/27 02:48:43;;;;;;;63.50;59.58;;;;;;;;;;4987732;28;20034;-93
2024/03/27 02:51:41;;;;;;;62.28;58.80;;;;;;;;;;4980454;28;20047;-95
2024/03/27 02:54:07;;;;;;;67.25;63.05;;;;;;;;;;4961935;28;20051;-95
2024/03/27 02:56:34;;;;;;;67.30;63.22;;;;;;;;;;4961786;28;20127;-94
2024/03/27 02:59:02;;;;;;;66.70;62.78;;;;;;;;;;4961417;28;20109;-93
2024/03/27 03:01:29;;;;;;;61.97;58.33;;;;;;;;;;4961865;28;20118;-95
2024/03/27 03:03:58;;;;;;;56.83;53.50;;;;;;;;;;4961522;28;20480;-94
2024/03/27 03:06:31;;;;;;;56.40;52.88;;;;;;;;;;4961474;28;20499;-95
2024/03/27 03:09:03;;;;;;;55.00;51.75;;;;;;;;;;4956065;28;20043;-94
2024/03/27 03:11:30;;;;;;;52.25;49.17;;;;;;;;;;4958125;28;20473;-92
2024/03/27 03:13:56;;;;;;;56.22;52.80;;;;;;;;;;4961862;28;20044;-94
2024/03/27 03:16:22;;;;;;;48.70;45.83;;;;;;;;;;4982536;28;20015;-92
2024/03/27 03:18:51;;;;;;;52.53;49.40;;;;;;;;;;4965386;28;20031;-94
2024/03/27 03:21:18;;;;;;;43.97;41.33;;;;;;;;;;4961482;28;20110;-93
2024/03/27 03:23:47;;;;;;;38.88;36.28;;;;;;;;;;4967671;28;20018;-92
2024/03/27 03:26:16;;;;;;;54.28;50.78;;;;;;;;;;4964562;28;20039;-95
2024/03/27 03:28:42;;;;;;;47.92;45.15;;;;;;;;;;4962579;28;20075;-95
2024/03/27 03:31:17;;;;;;;33.00;30.85;;;;;;;;;;4961522;28;20027;-95
2024/03/27 03:33:46;;;;;;;37.83;35.28;;;;;;;;;;4961035;28;20035;-95
2024/03/27 03:36:15;;;;;;;27.75;25.65;;;;;;;;;;4961540;28;20023;-93
2024/03/27 03:39:14;;;;;;;33.90;31.33;;;;;;;;;;4960909;28;20023;-96
2024/03/27 03:41:48;;;;;;;46.05;42.90;;;;;;;;;;4957181;28;20178;-95
2024/03/27 03:44:17;;;;;;;;;;;;;;;;;;4965387;28;20049;-92
2024/03/27 03:46:46;;;;;;;50.28;47.17;;;;;;;;;;4961433;28;19906;-94
2024/03/27 03:49:12;;;;;;;44.50;41.85;;;;;;;;;;4961133;28;20035;-95
2024/03/27 03:51:43;;;;;;;35.67;33.30;;;;;;;;;;4945914;28;20126;-94
2024/03/27 03:54:09;;;;;;;42.15;39.22;;;;;;;;;;4980136;28;20451;-96
2024/03/27 03:56:38;;;;;;;31.23;29.30;;;;;;;;;;4980145;28;20057;-95
2024/03/27 03:59:05;;;;;;;15.55;14.27;;;;;;;;;;4980097;28;20022;-93
2024/03/27 04:01:31;;;;;;;21.45;19.80;;;;;;;;;;4979361;28;20480;-94
2024/03/27 04:04:00;;;;;;;17.45;16.08;;;;;;;;;;4979765;28;20022;-94
2024/03/27 04:06:27;;;;;;;19.75;18.15;;;;;;;;;;4979530;28;20064;-95
2024/03/27 04:09:01;;;;;;;18.15;16.73;;;;;;;;;;4980140;28;20034;-95
2024/03/27 04:11:27;;;;;;;23.10;21.25;;;;;;;;;;4985799;28;20073;-95
2024/03/27 04:13:57;;;;;;;17.08;15.30;;;;;;;;;;4981092;28;20069;-94
2024/03/27 04:16:32;;;;;;;31.95;29.75;;;;;;;;;;4980689;28;20035;-93
2024/03/27 04:19:10;;;;;;;13.93;12.82;;;;;;;;;;4983257;28;20038;-94
2024/03/27 04:21:39;;;;;;;19.63;17.92;;;;;;;;;;4981106;28;20158;-94
2024/03/27 04:24:14;;;;;;;19.35;17.67;;;;;;;;;;4983489;28;20054;-93
2024/03/27 04:26:40;;;;;;;20.88;19.23;;;;;;;;;;4987050;28;20023;-94
2024/03/27 04:29:09;;;;;;;17.02;15.52;;;;;;;;;;4981107;28;20054;-95
2024/03/27 04:31:37;;;;;;;22.55;20.80;;;;;;;;;;4988860;28;20030;-95
2024/03/27 04:34:20;;;;;;;23.83;22.10;;;;;;;;;;5011172;28;20026;-94
2024/03/27 04:36:56;;;;;;;17.73;16.42;;;;;;;;;;4999147;28;20141;-95
2024/03/27 04:39:26;;;;;;;19.25;17.75;;;;;;;;;;5007342;28;20038;-95
2024/03/27 04:42:03;;;;;;;16.40;14.82;;;;;;;;;;4989680;28;20022;-93
2024/03/27 04:44:34;;;;;;;12.75;11.55;;;;;;;;;;4998994;28;20050;-96
2024/03/27 04:47:06;;;;;;;20.15;18.42;;;;;;;;;;4991004;28;20052;-95
2024/03/27 04:49:44;;;;;;;15.52;14.35;;;;;;;;;;5004741;28;20030;-96
2024/03/27 04:52:26;;;;;;;;;;;;;;;;;;;;;
2024/03/27 04:54:58;;;;;;;22.75;20.60;;;;;;;;;;4980826;28;20125;-95
2024/03/27 04:57:33;;;;;;;15.02;13.68;;;;;;;;;;4959272;28;20515;-93
2024/03/27 05:03:07;;;;;;;20.52;18.83;;;;;;;;;;4982741;28;20073;-95
2024/03/27 05:05:37;;;;;;;17.50;15.98;;;;;;;;;;4989833;28;20042;-95
2024/03/27 05:08:06;;;;;;;15.65;14.15;;;;;;;;;;4992218;28;20058;-96
2024/03/27 05:10:44;;;;;;;18.92;17.52;;;;;;;;;;5009761;28;20045;-95
2024/03/27 05:13:16;;;;;;;17.58;14.02;;;;;;;;;;4991837;28;20022;-96
2024/03/27 05:15:56;;;;;;;18.60;16.83;;;;;;;;;;4987132;28;20041;-95
2024/03/27 05:18:30;;;;;;;17.35;15.65;;;;;;;;;;4987835;28;20023;-95
2024/03/27 05:21:02;;;;;;;21.83;20.05;;;;;;;;;;5005148;28;20061;-95
2024/03/27 05:23:31;;;;;;;16.55;15.18;;;;;;;;;;4989837;28;20038;-95
2024/03/27 05:26:16;;;;;;;16.83;15.25;;;;;;;;;;4972282;28;20503;-95
2024/03/27 05:28:43;;;;;;;15.30;13.85;;;;;;;;;;4988005;28;20031;-94
2024/03/27 05:31:10;;;;;;;13.02;11.73;;;;;;;;;;4990310;28;20034;-94
2024/03/27 05:33:38;;;;;;;15.02;13.55;;;;;;;;;;4991832;28;20030;-93
2024/03/27 05:36:10;;;;;;;17.52;15.85;;;;;;;;;;5000741;28;20014;-94
2024/03/27 05:39:02;;;;;;;15.88;14.43;;;;;;;;;;4995944;28;20047;-95
2024/03/27 05:42:37;;;;;;;13.20;11.90;;;;;;;;;;5015139;28;20026;-96
2024/03/27 05:44:47;;;;;;;14.15;12.90;;;;;;;;;;4912252;29;20080;-94
2024/03/27 05:50:27;;;;;;;14.68;13.30;;;;;;;;;;4865394;29;20058;-92
2024/03/27 05:52:59;;;;;;;14.60;12.90;;;;;;;;;;4866424;29;20046;-94
2024/03/27 05:55:25;;;;;;;16.45;14.82;;;;;;;;;;4902646;29;20064;-94
2024/03/27 06:01:02;;;;;;;17.40;14.15;;;;;;;;;;4903414;29;20087;-95
2024/03/27 06:03:40;;;;;;;16.17;13.95;;;;;;;;;;4899770;29;20088;-93
2024/03/27 06:08:51;;;;;;;16.20;14.27;;;;;;;;;;5185041;23;20056;-93
2024/03/27 06:11:40;;;;;;;16.55;10.93;;;;;;;;;;4915763;29;20040;-92
2024/03/27 06:18:28;;;;;;;17.02;13.68;;;;;;;;;;4939598;29;20042;-94
2024/03/27 06:37:17;;;;;;;15.98;14.75;;;;;;;;;;4977270;28;20044;-91
2024/03/27 06:39:43;;;;;;;18.83;16.63;;;;;;;;;;4958828;28;20097;-91
2024/03/27 06:42:10;;;;;;;28.00;25.60;;;;;;;;;;4958324;28;20043;-92
2024/03/27 06:44:36;;;;;;;18.05;16.45;;;;;;;;;;4985344;28;20033;-91
2024/03/27 06:47:03;;;;;;;20.27;18.45;;;;;;;;;;4973219;28;20443;-93
2024/03/27 06:49:35;;;;;;;21.75;19.83;;;;;;;;;;4959467;28;20027;-92
2024/03/27 06:52:01;;;;;;;20.73;19.02;;;;;;;;;;4958568;28;20027;-94
2024/03/27 06:54:27;;;;;;;18.92;17.30;;;;;;;;;;4960015;28;20031;-93
2024/03/27 06:57:44;;;;;;;20.08;18.65;;;;;;;;;;4962589;28;20031;-93
2024/03/27 07:00:26;;;;;;;30.35;28.02;;;;;;;;;;4970666;23;20021;-94
2024/03/27 07:20:55;;;;;;;29.23;27.10;;;;;;;;;;4958045;29;20054;-92
2024/03/27 07:23:55;;;;;;;32.42;30.10;;;;;;;;;;4943253;29;20027;-94
2024/03/27 07:26:31;;;;;;;24.95;22.67;;;;;;;;;;4943281;29;20512;-92
2024/03/27 07:29:00;;;;;;;29.92;27.35;;;;;;;;;;4943217;29;20023;-92
2024/03/27 07:31:26;;;;;;;28.35;26.13;;;;;;;;;;4952521;28;20034;-93
2024/03/27 07:36:40;;;;;;;28.67;26.50;;;;;;;;;;4966362;28;20082;-94
2024/03/27 07:39:10;;;;;;;24.63;22.55;;;;;;;;;;4919167;29;20032;-94
2024/03/27 07:41:39;;;;;;;22.92;21.10;;;;;;;;;;4900604;29;20544;-93
2024/03/27 07:44:05;;;;;;;32.28;30.02;;;;;;;;;;4894822;29;20051;-95
2024/03/27 07:46:49;;;;;;;30.05;27.33;;;;;;;;;;4889782;29;20028;-95
2024/03/27 07:55:31;;;;;;;24.20;22.13;;;;;;;;;;4899488;29;20502;-92
2024/03/27 08:06:56;;;;;;;22.05;20.05;;;;;;;;;;4899185;29;20051;-92
2024/03/27 08:09:47;;;;;;;25.83;23.73;;;;;;;;;;4893987;29;20078;-93
2024/03/27 08:12:13;;;;;;;22.60;20.65;;;;;;;;;;4940817;29;20027;-92
2024/03/27 08:14:39;;;;;;;29.98;27.65;;;;;;;;;;4940612;29;20031;-92
2024/03/27 08:17:17;;;;;;;28.85;26.52;;;;;;;;;;4963938;28;20495;-91
2024/03/27 08:19:43;;;;;;;32.50;30.05;;;;;;;;;;4967165;28;20052;-93
2024/03/27 08:22:10;;;;;;;32.85;30.40;;;;;;;;;;4959921;28;20527;-92
2024/03/27 08:24:36;;;;;;;52.60;48.92;;;;;;;;;;4962604;28;20062;-92
2024/03/27 08:27:03;;;;;;;28.77;26.65;;;;;;;;;;4959042;28;20035;-93
2024/03/27 08:29:36;;;;;;;28.52;26.23;;;;;;;;;;4959062;28;20070;-91
2024/03/27 08:32:18;;;;;;;32.00;29.75;;;;;;;;;;4989097;28;20038;-92
2024/03/27 08:34:44;;;;;;;33.38;30.73;;;;;;;;;;4980356;28;20023;-92
2024/03/27 08:40:13;;;;;;;31.63;28.98;;;;;;;;;;4976457;28;20037;-92
2024/03/27 08:42:39;;;;;;;47.22;43.95;;;;;;;;;;4959137;28;20109;-93
2024/03/27 08:45:06;;;;;;;23.08;21.20;;;;;;;;;;4978553;28;20396;-93
2024/03/27 08:47:35;;;;;;;40.42;36.97;;;;;;;;;;4966294;28;20011;-91
2024/03/27 08:50:01;;;;;;;38.65;35.38;;;;;;;;;;4994177;28;20014;-92
2024/03/27 08:52:27;;;;;;;53.15;49.03;;;;;;;;;;4975692;28;20050;-91
2024/03/27 08:58:07;;;;;;;31.45;29.13;;;;;;;;;;4977741;28;20053;-90
2024/03/27 09:00:39;;;;;;;28.77;26.58;;;;;;;;;;4961898;28;20550;-88
2024/03/27 09:03:06;;;;;;;30.38;27.92;;;;;;;;;;4966934;28;20511;-89
2024/03/27 09:05:32;;;;;;;33.58;30.95;;;;;;;;;;4971430;28;20066;-89
2024/03/27 09:07:58;;;;;;;36.65;33.65;;;;;;;;;;4970197;28;20528;-89
2024/03/27 09:10:25;;;;;;;28.55;26.20;;;;;;;;;;4963066;28;20034;-89
2024/03/27 09:12:51;;;;;;;26.88;24.73;;;;;;;;;;4992735;28;20031;-89
2024/03/27 09:15:21;;;;;;;40.95;37.78;;;;;;;;;;4960053;28;20023;-94
2024/03/27 09:17:47;;;;;;;43.63;39.75;;;;;;;;;;4966146;28;20055;-90
2024/03/27 09:20:13;;;;;;;36.00;33.40;;;;;;;;;;4940388;29;20090;-90
2024/03/27 09:22:39;;;;;;;30.08;27.67;;;;;;;;;;4939657;29;20042;-89
2024/03/27 09:25:06;;;;;;;45.28;42.08;;;;;;;;;;4940226;29;20035;-89
2024/03/27 09:27:42;;;;;;;36.65;33.95;;;;;;;;;;4949239;28;20486;-93
2024/03/27 09:30:20;;;;;;;36.85;33.88;;;;;;;;;;4946672;29;20396;-90
2024/03/27 09:32:49;;;;;;;27.67;25.45;;;;;;;;;;4926976;29;20027;-93
2024/03/27 09:35:15;;;;;;;41.15;37.58;;;;;;;;;;4940994;29;20520;-90
2024/03/27 09:40:45;;;;;;;29.98;27.65;;;;;;;;;;4956253;29;20548;-90
2024/03/27 09:43:12;;;;;;;34.97;32.05;;;;;;;;;;4939624;29;20053;-93
2024/03/27 09:45:39;;;;;;;29.38;26.95;;;;;;;;;;4938979;29;20042;-91
2024/03/27 09:48:06;;;;;;;31.83;28.75;;;;;;;;;;4941298;28;20042;-91
2024/03/27 09:50:33;;;;;;;44.92;41.35;;;;;;;;;;4955518;28;20089;-89
2024/03/27 09:53:04;;;;;;;33.00;30.13;;;;;;;;;;4954817;28;20035;-88
2024/03/27 10:01:28;;;;;;;30.17;27.55;;;;;;;;;;4957121;29;20488;-90
2024/03/27 10:03:55;;;;;;;39.22;35.95;;;;;;;;;;4938397;29;20035;-87
2024/03/27 10:06:24;;;;;;;33.97;30.83;;;;;;;;;;4939649;29;20023;-94
2024/03/27 10:08:56;;;;;;;50.35;46.50;;;;;;;;;;4941562;29;20024;-91
2024/03/27 10:14:50;;;;;;;43.58;39.75;;;;;;;;;;4966813;28;20089;-93
2024/03/27 10:17:23;;;;;;;41.95;38.63;;;;;;;;;;4979551;28;20097;-91
2024/03/27 10:19:50;;;;;;;39.72;36.10;;;;;;;;;;4977545;28;20393;-94
2024/03/27 10:22:17;;;;;;;38.92;35.55;;;;;;;;;;4957906;28;20477;-92
2024/03/27 10:24:48;;;;;;;40.08;36.72;;;;;;;;;;4957650;28;20043;-94
2024/03/27 10:33:09;;;;;;;48.78;44.80;;;;;;;;;;4981911;28;20444;-95
2024/03/27 10:35:51;;;;;;;;;;;;;;;;;;;;;
2024/03/27 10:38:22;;;;;;;36.72;33.13;;;;;;;;;;4983774;28;20087;-91
2024/03/27 10:41:09;;;;;;;40.97;37.28;;;;;;;;;;4958309;28;20027;-94
2024/03/27 10:43:46;;;;;;;39.63;35.85;;;;;;;;;;4942501;29;20136;-93
2024/03/27 10:46:30;;;;;;;34.05;31.08;;;;;;;;;;4941841;29;20054;-94
2024/03/27 10:48:56;;;;;;;41.58;38.22;;;;;;;;;;4942055;29;20046;-93
2024/03/27 10:51:46;;;;;;;34.05;30.73;;;;;;;;;;4942301;29;20027;-91
2024/03/27 10:54:26;;;;;;;40.53;36.75;;;;;;;;;;4959060;29;20042;-91
2024/03/27 10:56:59;;;;;;;33.17;30.17;;;;;;;;;;4941063;29;20047;-92
2024/03/27 10:59:43;;;;;;;36.75;33.50;;;;;;;;;;4953004;28;20121;-92
2024/03/27 11:02:22;;;;;;;36.78;33.72;;;;;;;;;;4941854;28;20047;-91
2024/03/27 11:11:17;;;;;;;52.05;48.05;;;;;;;;;;4959096;29;20118;-95
2024/03/27 11:17:20;;;;;;;39.15;36.00;;;;;;;;;;4964593;28;20027;-95
2024/03/27 11:20:21;;;;;;;35.50;32.50;;;;;;;;;;4920259;29;20142;-94
2024/03/27 11:23:04;;;;;;;41.45;38.05;;;;;;;;;;4853544;29;20044;-95
2024/03/27 11:26:11;;;;;;;39.10;35.05;;;;;;;;;;4934273;29;20480;-94
2024/03/27 11:29:09;;;;;;;35.67;32.50;;;;;;;;;;4944908;28;20035;-95
2024/03/27 11:32:09;;;;;;;32.22;29.38;;;;;;;;;;4979510;28;20049;-95
2024/03/27 11:34:41;;;;;;;38.88;35.47;;;;;;;;;;4972997;28;20479;-94
2024/03/27 11:37:18;;;;;;;37.97;34.95;;;;;;;;;;4981909;28;20034;-94
2024/03/27 11:39:56;;;;;;;32.28;28.88;;;;;;;;;;4970831;28;20490;-96
2024/03/27 11:42:22;;;;;;;47.47;43.65;;;;;;;;;;4961701;28;20082;-90
2024/03/27 11:45:10;;;;;;;31.40;28.60;;;;;;;;;;4960001;28;20042;-94
2024/03/27 11:53:42;;;;;;;28.30;25.90;;;;;;;;;;4978809;28;20043;-94
2024/03/27 11:56:08;;;;;;;37.42;34.33;;;;;;;;;;4958053;28;20038;-94
2024/03/27 11:59:13;;;;;;;35.80;32.80;;;;;;;;;;4971737;29;20042;-92
2024/03/27 12:02:33;;;;;;;36.45;33.33;;;;;;;;;;4905208;29;20585;-93
2024/03/27 12:16:51;;;;;;;34.03;31.00;;;;;;;;;;4897811;29;20040;-94
2024/03/27 12:19:21;;;;;;;31.33;28.83;;;;;;;;;;4880968;29;20044;-92
2024/03/27 12:27:29;;;;;;;35.95;32.97;;;;;;;;;;4936214;29;20493;-91
2024/03/27 12:29:58;;;;;;;30.05;26.98;;;;;;;;;;4902084;29;20028;-89
2024/03/27 12:32:34;;;;;;;32.05;29.38;;;;;;;;;;4902661;29;20047;-91
2024/03/27 12:35:09;;;;;;;30.08;27.67;;;;;;;;;;4919806;29;20102;-93
2024/03/27 12:37:47;;;;;;;32.90;29.20;;;;;;;;;;4920255;29;20040;-96
2024/03/27 12:43:02;;;;;;;32.13;29.50;;;;;;;;;;4938412;29;20048;-93
2024/03/27 12:45:32;;;;;;;30.52;27.80;;;;;;;;;;4925976;29;20031;-92
2024/03/27 12:48:08;;;;;;;41.38;37.80;;;;;;;;;;4931157;29;20036;-93
2024/03/27 12:56:55;;;;;;;28.97;26.47;;;;;;;;;;4858746;29;20065;-91
2024/03/27 12:59:21;;;;;;;30.90;28.20;;;;;;;;;;4929520;29;20793;-92
2024/03/27 13:01:47;;;;;;;27.98;25.75;;;;;;;;;;4921232;29;20023;-92
2024/03/27 13:07:48;;;;;;;47.33;43.50;;;;;;;;;;4939264;29;20035;-93
2024/03/27 13:10:20;;;;;;;22.75;20.52;;;;;;;;;;4979221;23;20058;-93
2024/03/27 13:12:46;;;;;;;37.17;33.97;;;;;;;;;;4941490;29;20065;-94
2024/03/27 13:18:28;;;;;;;29.52;26.80;;;;;;;;;;4966790;28;20053;-94
2024/03/27 13:21:26;;;;;;;37.28;34.20;;;;;;;;;;4962445;28;20035;-95
2024/03/27 13:33:19;;;;;;;21.35;19.25;;;;;;;;;;4918575;29;20032;-94
2024/03/27 13:36:04;;;;;;;;;;;;;;;;;;;;;
2024/03/27 13:38:33;;;;;;;34.42;31.73;;;;;;;;;;4929290;29;20363;-94
2024/03/27 13:46:13;;;;;;;33.45;30.92;;;;;;;;;;4980172;28;20058;-92
2024/03/27 13:48:47;;;;;;;27.08;24.77;;;;;;;;;;4958234;28;20077;-93
2024/03/27 13:51:16;;;;;;;25.48;23.00;;;;;;;;;;4957963;28;20038;-93
2024/03/27 13:53:42;;;;;;;29.30;27.10;;;;;;;;;;4968876;28;20018;-92
2024/03/27 13:56:33;;;;;;;25.45;22.98;;;;;;;;;;4935978;29;20130;-93
2024/03/27 14:04:50;;;;;;;39.53;36.50;;;;;;;;;;4978884;28;20050;-92
2024/03/27 14:07:16;;;;;;;27.15;25.00;;;;;;;;;;4938289;29;20039;-91
2024/03/27 14:09:48;;;;;;;33.75;31.08;;;;;;;;;;4922835;29;20083;-91
2024/03/27 14:12:33;;;;;;;23.40;21.45;;;;;;;;;;4941225;29;20377;-94
2024/03/27 14:14:59;;;;;;;29.80;27.40;;;;;;;;;;4941594;29;20031;-92
2024/03/27 14:17:25;;;;;;;21.48;19.67;;;;;;;;;;4951384;28;20057;-92
2024/03/27 14:22:57;;;;;;;22.77;20.90;;;;;;;;;;4962792;28;20062;-92
2024/03/27 14:25:31;;;;;;;24.80;22.50;;;;;;;;;;4936754;29;20078;-92
2024/03/27 14:28:00;;;;;;;23.95;22.05;;;;;;;;;;4941137;29;20131;-91
2024/03/27 14:30:32;;;;;;;26.52;24.35;;;;;;;;;;4941242;29;20477;-92
2024/03/27 14:33:13;;;;;;;31.25;28.52;;;;;;;;;;4941366;29;20432;-92
2024/03/27 14:35:45;;;;;;;32.00;29.52;;;;;;;;;;4951155;28;20068;-91
2024/03/27 14:38:17;;;;;;;25.10;23.07;;;;;;;;;;4970547;28;20384;-92
2024/03/27 14:43:46;;;;;;;33.20;30.63;;;;;;;;;;4982418;28;20074;-92
2024/03/27 14:46:21;;;;;;;29.58;27.48;;;;;;;;;;4942171;29;20117;-91
2024/03/27 14:48:56;;;;;;;34.95;32.30;;;;;;;;;;4936510;29;20034;-92
2024/03/27 14:51:25;;;;;;;27.13;25.15;;;;;;;;;;4925126;29;20035;-92
2024/03/27 14:53:54;;;;;;;27.85;25.73;;;;;;;;;;4924332;29;20032;-93
2024/03/27 14:56:29;;;;;;;28.90;26.58;;;;;;;;;;4926825;29;20194;-92
2024/03/27 14:58:58;;;;;;;25.15;22.92;;;;;;;;;;4922721;29;20027;-92
2024/03/27 15:01:30;;;;;;;28.27;25.95;;;;;;;;;;4947155;28;20099;-92
2024/03/27 15:04:00;;;;;;;23.75;21.58;;;;;;;;;;4965214;28;20015;-92
2024/03/27 15:06:28;;;;;;;25.20;22.88;;;;;;;;;;4910994;29;20044;-92
2024/03/27 15:11:56;;;;;;;21.08;19.13;;;;;;;;;;4944550;29;20089;-92
2024/03/27 15:14:57;;;;;;;29.08;26.42;;;;;;;;;;4941826;28;20024;-93
2024/03/27 15:21:46;;;;;;;23.83;21.67;;;;;;;;;;4958575;29;20074;-93
2024/03/27 15:23:44;;;;;;;20.25;18.52;;;;;;;;;;4942510;28;20059;-92
2024/03/27 15:26:13;;;;;;;23.48;21.40;;;;;;;;;;4953253;29;20047;-93
2024/03/27 16:19:46;;;;;;;21.58;19.98;;;;;;;;;;4883712;29;20142;-94
2024/03/27 16:22:24;;;;;;;23.13;21.05;;;;;;;;;;4863954;29;20033;-93
2024/03/27 16:24:54;;;;;;;24.60;22.77;;;;;;;;;;4863851;29;20527;-92
2024/03/27 16:27:24;;;;;;;24.60;22.65;;;;;;;;;;4862574;29;20101;-94
2024/03/27 16:30:02;;;;;;;24.63;22.50;;;;;;;;;;4864275;29;20132;-93
2024/03/27 16:32:30;;;;;;;19.65;18.08;;;;;;;;;;4863940;29;20108;-93
2024/03/27 16:34:57;;;;;;;24.10;21.75;;;;;;;;;;4864013;29;20119;-94
2024/03/27 16:37:27;;;;;;;24.42;22.45;;;;;;;;;;4875284;29;20064;-92
2024/03/27 16:40:42;;;;;;;28.50;26.52;;;;;;;;;;4879564;29;20041;-92
2024/03/27 16:42:44;;;;;;;21.85;20.02;;;;;;;;;;4887526;29;20025;-92
2024/03/27 16:45:14;;;;;;;25.23;23.48;;;;;;;;;;4882926;29;20507;-91
2024/03/27 16:47:44;;;;;;;18.38;16.63;;;;;;;;;;4889957;29;20545;-92
2024/03/27 16:50:16;;;;;;;18.85;17.30;;;;;;;;;;4886607;29;20051;-89
2024/03/27 16:52:45;;;;;;;16.17;14.82;;;;;;;;;;4863519;29;20045;-92
2024/03/27 16:55:17;;;;;;;19.40;17.85;;;;;;;;;;4864201;29;20380;-91
2024/03/27 16:57:46;;;;;;;15.70;14.20;;;;;;;;;;4863694;29;20033;-91
2024/03/27 17:00:17;;;;;;;20.70;19.00;;;;;;;;;;4864090;29;20132;-90
2024/03/27 17:02:46;;;;;;;18.90;17.50;;;;;;;;;;4863552;29;20595;-90
2024/03/27 17:05:29;;;;;;;20.02;18.13;;;;;;;;;;4863646;29;20061;-90
2024/03/27 17:07:55;;;;;;;17.90;16.42;;;;;;;;;;4876157;29;20461;-90
2024/03/27 17:10:31;;;;;;;28.13;25.90;;;;;;;;;;4882598;29;20036;-91
2024/03/27 17:13:06;;;;;;;15.93;14.73;;;;;;;;;;4883154;29;20024;-91
2024/03/27 17:15:35;;;;;;;18.80;17.42;;;;;;;;;;4900896;29;20604;-90
2024/03/27 17:18:10;;;;;;;19.92;18.27;;;;;;;;;;4904772;29;20024;-93
2024/03/27 17:20:42;;;;;;;20.95;19.15;;;;;;;;;;4906232;29;20055;-93
2024/03/27 17:23:16;;;;;;;23.27;20.92;;;;;;;;;;4936747;29;20079;-94
2024/03/27 17:25:51;;;;;;;23.15;21.02;;;;;;;;;;4920590;29;20482;-92
2024/03/27 17:28:49;;;;;;;20.15;18.30;;;;;;;;;;4917460;29;20028;-92
2024/03/27 17:31:28;;;;;;;20.83;19.02;;;;;;;;;;4916871;29;20231;-93
2024/03/27 17:34:00;;;;;;;18.38;16.45;;;;;;;;;;4917379;29;20040;-93
2024/03/27 17:36:26;;;;;;;21.13;19.42;;;;;;;;;;4917461;29;20035;-93
2024/03/27 17:38:55;;;;;;;19.42;17.88;;;;;;;;;;4918301;29;20024;-90
2024/03/27 17:41:27;;;;;;;24.75;22.80;;;;;;;;;;4926670;29;20114;-90
2024/03/27 17:44:33;;;;;;;15.35;14.07;;;;;;;;;;4918320;29;20036;-92
2024/03/27 17:47:00;;;;;;;16.40;15.02;;;;;;;;;;4916245;29;20498;-93
2024/03/27 17:49:36;;;;;;;19.35;17.42;;;;;;;;;;4917561;29;20497;-90
2024/03/27 17:52:02;;;;;;;18.42;14.85;;;;;;;;;;4928960;29;20124;-93
2024/03/27 17:54:34;;;;;;;16.85;15.38;;;;;;;;;;4936738;29;20028;-93
2024/03/27 17:57:20;;;;;;;13.70;12.57;;;;;;;;;;4930984;29;20087;-93
2024/03/27 18:00:17;;;;;;;19.67;17.75;;;;;;;;;;4918723;29;20040;-92
2024/03/27 18:06:07;;;;;;;13.07;12.02;;;;;;;;;;4919451;29;20095;-92
2024/03/27 18:08:36;;;;;;;12.65;11.43;;;;;;;;;;4901845;29;20052;-93
2024/03/27 18:11:09;;;;;;;16.23;14.82;;;;;;;;;;4916875;29;20059;-91
2024/03/27 18:13:39;;;;;;;16.33;14.77;;;;;;;;;;4919388;29;20533;-92
2024/03/27 18:16:11;;;;;;;22.60;20.92;;;;;;;;;;4947822;29;20064;-93
2024/03/27 18:18:47;;;;;;;20.00;18.52;;;;;;;;;;4924645;29;20044;-93
2024/03/27 18:21:28;;;;;;;21.00;19.17;;;;;;;;;;4923076;29;20032;-93
2024/03/27 18:24:21;;;;;;;24.17;21.85;;;;;;;;;;4918849;29;20032;-92
2024/03/27 18:30:01;;;;;;;21.77;19.63;;;;;;;;;;4918425;29;20065;-93
2024/03/27 18:32:28;;;;;;;17.75;15.95;;;;;;;;;;4929385;29;20035;-92
2024/03/27 18:34:57;;;;;;;26.92;24.48;;;;;;;;;;4928436;29;20036;-91
2024/03/27 18:37:29;;;;;;;24.88;22.65;;;;;;;;;;4929809;29;20029;-91
2024/03/27 18:39:58;;;;;;;20.02;18.35;;;;;;;;;;4917926;29;21113;-94
2024/03/27 18:42:29;;;;;;;23.33;21.25;;;;;;;;;;4913392;29;20047;-92
2024/03/27 18:45:05;;;;;;;23.73;21.67;;;;;;;;;;4919603;29;20028;-93